Time;durP1;ratioP1;P1;durP2;ratioP2;P2;SDS_P1;SDS_P2;PMS_P1;PMS_P2;Temp;Humidity;BMP_temperature;BMP_pressure;BME280_temperature;BME280_humidity;BME280_pressure;Samples;Min_cycle;Max_cycle;Signal;HPM_P1;HPM_P2
2023/09/05 00:00:14;;;;;;;;;5.00;5.00;;;;;24.32;49.95;100819.09;6182803;22;46245;-80
2023/09/05 00:02:44;;;;;;;;;4.50;4.50;;;;;24.28;50.39;100820.44;6182949;23;45219;-81
2023/09/05 00:05:11;;;;;;;;;5.00;5.00;;;;;24.23;50.34;100821.97;6182795;22;45362;-80
2023/09/05 00:07:38;;;;;;;;;5.25;5.25;;;;;24.34;50.60;100837.94;6183341;22;45309;-82
2023/09/05 00:10:05;;;;;;;;;5.75;5.50;;;;;24.27;50.71;100820.59;6182847;23;45244;-81
2023/09/05 00:12:31;;;;;;;;;5.75;5.75;;;;;24.30;50.23;100829.28;6183043;22;45321;-82
2023/09/05 00:14:58;;;;;;;;;5.00;5.00;;;;;24.30;50.23;100842.03;6182855;22;45262;-82
2023/09/05 00:17:24;;;;;;;;;6.50;5.75;;;;;24.29;50.28;100837.59;6183148;23;45252;-80
2023/09/05 00:19:51;;;;;;;;;6.25;5.75;;;;;24.27;50.63;100842.34;6182848;22;45359;-81
2023/09/05 00:22:17;;;;;;;;;4.00;4.00;;;;;24.20;50.74;100831.28;6182565;23;45220;-80
2023/09/05 00:24:44;;;;;;;;;7.75;6.00;;;;;24.22;50.64;100828.41;6180910;23;45264;-81
2023/09/05 00:27:12;;;;;;;;;5.75;5.75;;;;;24.25;50.45;100844.38;6183726;23;45332;-82
2023/09/05 00:29:39;;;;;;;;;4.75;3.75;;;;;24.21;50.65;100830.25;6182906;22;45293;-81
2023/09/05 00:32:05;;;;;;;;;5.75;5.75;;;;;24.15;50.69;100825.53;6183040;22;45382;-81
2023/09/05 00:34:33;;;;;;;;;4.25;4.25;;;;;24.18;50.75;100849.63;6182944;22;45278;-81
2023/09/05 00:37:00;;;;;;;;;6.75;6.50;;;;;24.11;50.96;100830.44;6182877;22;45216;-80
2023/09/05 00:39:26;;;;;;;;;5.75;5.75;;;;;24.08;50.87;100827.19;6182597;22;46286;-81
2023/09/05 00:41:51;;;;;;;;;7.50;5.75;;;;;24.10;50.72;100836.91;6183094;22;45275;-79
2023/09/05 00:44:17;;;;;;;;;6.75;6.75;;;;;24.00;51.29;100822.63;6183264;23;57384;-80
2023/09/05 00:46:45;;;;;;;;;5.00;5.00;;;;;23.97;51.25;100820.25;6183829;23;45545;-81
2023/09/05 00:49:15;;;;;;;;;6.50;6.50;;;;;24.00;51.54;100836.19;6182638;22;46332;-81
2023/09/05 00:51:42;;;;;;;;;6.00;5.50;;;;;23.95;51.14;100827.69;6183536;22;45297;-83
2023/09/05 00:54:10;;;;;;;;;7.50;7.00;;;;;23.92;51.85;100822.59;6183194;23;45354;-81
2023/09/05 00:56:36;;;;;;;;;7.50;6.50;;;;;23.90;52.20;100819.19;6183624;22;45352;-81
2023/09/05 00:59:04;;;;;;;;;4.00;4.00;;;;;23.85;51.94;100827.00;6182733;22;45279;-83
2023/09/05 01:01:29;;;;;;;;;9.25;5.75;;;;;23.69;51.90;100811.50;6182750;22;45304;-81
2023/09/05 01:03:57;;;;;;;;;7.75;6.00;;;;;23.78;52.29;100825.97;6183029;22;45284;-81
2023/09/05 01:07:00;;;;;;;;;7.50;7.50;;;;;23.73;52.62;100829.19;6183105;22;45245;-79
2023/09/05 01:09:39;;;;;;;;;7.00;7.00;;;;;23.69;52.66;100827.78;6169486;23;45493;-83
2023/09/05 01:12:06;;;;;;;;;5.00;5.00;;;;;23.67;52.59;100828.97;6182503;22;45394;-79
2023/09/05 01:14:31;;;;;;;;;6.25;5.25;;;;;23.63;52.58;100827.63;6182601;22;45467;-80
2023/09/05 01:17:01;;;;;;;;;6.75;6.75;;;;;23.53;52.72;100814.97;6181150;23;45272;-80
2023/09/05 01:19:28;;;;;;;;;7.25;6.00;;;;;23.48;52.88;100813.78;6182348;22;45391;-80
2023/09/05 01:22:43;;;;;;;;;6.25;6.25;;;;;23.51;52.54;100822.44;6180609;23;45674;-80
2023/09/05 01:25:11;;;;;;;;;8.50;7.00;;;;;23.52;53.03;100832.28;6155773;23;45434;-80
2023/09/05 01:27:36;;;;;;;;;7.75;7.75;;;;;23.47;52.85;100823.81;6182711;22;45465;-79
2023/09/05 01:30:05;;;;;;;;;6.00;6.00;;;;;23.46;53.24;100826.69;6182431;22;46071;-80
2023/09/05 01:32:31;;;;;;;;;10.50;7.50;;;;;23.39;53.50;100823.75;6182159;22;45270;-80
2023/09/05 01:34:56;;;;;;;;;7.50;6.50;;;;;23.34;53.71;100812.56;6182402;22;45263;-81
2023/09/05 01:37:23;;;;;;;;;8.25;8.25;;;;;23.33;53.65;100816.28;6182481;23;45253;-80
2023/09/05 01:39:48;;;;;;;;;7.25;6.00;;;;;23.28;53.49;100815.91;6182478;22;45824;-81
2023/09/05 01:42:13;;;;;;;;;7.25;7.25;;;;;23.17;53.48;100806.19;6182092;22;45248;-79
2023/09/05 01:44:39;;;;;;;;;9.25;8.00;;;;;23.21;53.63;100823.00;6183151;23;45782;-79
2023/09/05 01:47:04;;;;;;;;;7.75;7.50;;;;;23.21;54.06;100823.00;6182699;23;45682;-80
2023/09/05 01:49:30;;;;;;;;;8.00;6.50;;;;;23.20;53.74;100821.31;6182215;23;45396;-79
2023/09/05 01:51:55;;;;;;;;;5.00;5.00;;;;;23.12;53.68;100807.69;6182196;22;45391;-79
2023/09/05 01:54:20;;;;;;;;;8.00;6.25;;;;;23.11;54.17;100806.84;6180386;23;45364;-80
2023/09/05 01:56:46;;;;;;;;;7.00;7.00;;;;;23.05;54.05;100799.38;6182608;23;45304;-79
2023/09/05 01:59:12;;;;;;;;;8.25;8.25;;;;;22.95;53.97;100785.06;6182058;23;54177;-79
2023/09/05 02:01:37;;;;;;;;;9.75;6.75;;;;;23.09;53.98;100810.72;6182045;23;45261;-80
2023/09/05 02:04:03;;;;;;;;;7.75;6.00;;;;;23.05;54.02;100801.19;6182144;23;45454;-79
2023/09/05 02:06:28;;;;;;;;;8.75;7.50;;;;;22.96;54.35;100797.63;6182578;22;45585;-79
2023/09/05 02:08:53;;;;;;;;;8.00;6.00;;;;;23.00;54.15;100798.97;6182049;22;46070;-79
2023/09/05 02:11:19;;;;;;;;;4.75;4.75;;;;;23.00;54.26;100801.69;6182072;22;45372;-78
2023/09/05 02:13:44;;;;;;;;;6.00;6.00;;;;;22.82;54.39;100774.63;6183200;22;45206;-81
2023/09/05 02:16:10;;;;;;;;;9.75;8.00;;;;;22.88;54.38;100790.25;6183217;23;45265;-81
2023/09/05 02:18:35;;;;;;;;;7.50;7.50;;;;;22.82;54.62;100782.75;6182888;23;46914;-81
2023/09/05 02:21:01;;;;;;;;;9.00;9.00;;;;;22.84;54.38;100788.91;6183169;22;45292;-79
2023/09/05 02:23:27;;;;;;;;;7.33;7.33;;;;;22.76;54.57;100783.38;6183081;23;45393;-79
2023/09/05 02:26:00;;;;;;;;;9.00;7.00;;;;;22.76;55.18;100796.09;6184577;22;45347;-80
2023/09/05 02:28:25;;;;;;;;;9.00;7.00;;;;;22.69;55.09;100790.47;6184135;22;45372;-80
2023/09/05 02:30:52;;;;;;;;;7.00;7.00;;;;;22.70;55.02;100802.16;6181394;23;45261;-78
2023/09/05 02:33:19;;;;;;;;;11.67;6.67;;;;;22.67;55.11;100800.63;6183469;23;45125;-79
2023/09/05 02:35:44;;;;;;;;;6.50;6.50;;;;;22.62;54.94;100797.53;6183188;22;45315;-80
2023/09/05 02:38:10;;;;;;;;;7.25;5.75;;;;;22.56;55.22;100790.03;6183168;23;46034;-79
2023/09/05 02:40:35;;;;;;;;;7.67;6.67;;;;;22.57;55.28;100791.75;6182748;23;45430;-79
2023/09/05 02:43:01;;;;;;;;;9.33;7.33;;;;;22.47;55.45;100781.00;6183522;23;45368;-79
2023/09/05 02:45:26;;;;;;;;;6.33;5.67;;;;;22.53;55.61;100795.78;6183707;22;45363;-79
2023/09/05 02:47:52;;;;;;;;;7.00;7.00;;;;;22.51;55.08;100793.19;6183109;23;46165;-79
2023/09/05 02:50:18;;;;;;;;;7.00;7.00;;;;;22.49;55.32;100792.50;6183128;23;46027;-79
2023/09/05 02:52:43;;;;;;;;;5.75;5.75;;;;;22.41;55.44;100792.47;6183594;22;45260;-79
2023/09/05 02:55:09;;;;;;;;;6.00;6.00;;;;;22.42;55.57;100799.59;6183727;22;45415;-79
2023/09/05 02:57:34;;;;;;;;;11.00;9.00;;;;;22.43;55.49;100795.03;6182639;23;45996;-78
2023/09/05 03:00:00;;;;;;;;;6.33;6.33;;;;;22.39;55.97;100791.75;6183326;22;45142;-81
2023/09/05 03:02:25;;;;;;;;;6.00;6.00;;;;;22.30;55.77;100777.31;6183369;22;45265;-78
2023/09/05 03:04:54;;;;;;;;;8.00;6.75;;;;;22.30;55.86;100777.31;6183379;23;45331;-78
2023/09/05 03:07:20;;;;;;;;;8.67;5.33;;;;;22.35;55.73;100790.38;6182791;23;45402;-80
2023/09/05 03:09:46;;;;;;;;;5.50;5.50;;;;;22.29;55.96;100788.31;6183988;22;45367;-77
2023/09/05 03:12:11;;;;;;;;;7.75;6.75;;;;;22.30;55.83;100790.84;6183292;22;45407;-79
2023/09/05 03:14:37;;;;;;;;;6.00;6.00;;;;;22.31;55.89;100792.56;6183307;22;45509;-78
2023/09/05 03:17:04;;;;;;;;;8.00;8.00;;;;;22.29;56.03;100789.16;6182923;22;45359;-79
2023/09/05 03:19:30;;;;;;;;;9.50;9.25;;;;;22.22;56.28;100779.94;6182655;23;45236;-78
2023/09/05 03:21:55;;;;;;;;;8.00;8.00;;;;;22.13;56.15;100767.31;6183172;23;45169;-79
2023/09/05 03:24:24;;;;;;;;;7.00;7.00;;;;;22.22;56.70;100787.22;6182454;23;50721;-79
2023/09/05 03:26:50;;;;;;;;;8.67;6.00;;;;;22.19;56.28;100785.69;6182796;22;45920;-79
2023/09/05 03:29:15;;;;;;;;;10.33;9.00;;;;;22.06;56.69;100777.94;6183245;23;45250;-78
2023/09/05 03:31:41;;;;;;;;;9.33;8.67;;;;;22.11;56.79;100780.19;6183166;23;45366;-79
2023/09/05 03:34:06;;;;;;;;;7.67;7.00;;;;;22.05;57.02;100773.53;6183361;22;45514;-79
2023/09/05 03:36:32;;;;;;;;;6.67;6.67;;;;;22.01;57.09;100779.41;6183113;22;46195;-79
2023/09/05 03:38:57;;;;;;;;;8.67;8.00;;;;;22.00;56.94;100783.94;6183595;22;45356;-77
2023/09/05 03:41:23;;;;;;;;;8.00;8.00;;;;;21.95;56.84;100769.19;6183382;22;45248;-79
2023/09/05 03:43:48;;;;;;;;;8.33;7.00;;;;;21.97;57.08;100783.41;6184543;22;45179;-79
2023/09/05 03:46:13;;;;;;;;;9.00;7.67;;;;;21.87;56.99;100766.38;6183795;23;45751;-78
2023/09/05 03:48:39;;;;;;;;;8.67;8.67;;;;;21.98;56.91;100779.69;6185904;23;45148;-79
2023/09/05 03:51:04;;;;;;;;;10.00;9.00;;;;;21.86;57.11;100746.56;6183497;23;67274;-78
2023/09/05 03:53:29;;;;;;;;;8.00;8.00;;;;;21.84;57.37;100754.00;6184452;23;53243;-77
2023/09/05 03:55:54;;;;;;;;;10.33;8.00;;;;;21.79;57.30;100740.94;6183363;23;58645;-78
2023/09/05 03:58:20;;;;;;;;;10.67;9.33;;;;;21.82;57.71;100741.63;6183632;23;64111;-79
2023/09/05 04:00:45;;;;;;;;;9.00;9.00;;;;;21.67;57.66;100723.22;6184327;23;48327;-78
2023/09/05 04:03:10;;;;;;;;;5.00;5.00;;;;;21.67;57.53;100727.78;6183821;23;48582;-80
2023/09/05 04:05:36;;;;;;;;;11.33;8.67;;;;;21.73;57.28;100740.69;6184166;22;45157;-79
2023/09/05 04:08:02;;;;;;;;;11.00;11.00;;;;;21.76;57.43;100749.38;6184031;22;45721;-80
2023/09/05 04:10:27;;;;;;;;;10.00;8.67;;;;;21.75;57.37;100747.69;6207697;22;45280;-79
2023/09/05 04:12:53;;;;;;;;;7.00;6.33;;;;;21.72;57.66;100733.59;6183295;23;45254;-79
2023/09/05 04:15:21;;;;;;;;;10.67;9.67;;;;;21.69;57.46;100737.47;6182806;22;45410;-78
2023/09/05 04:17:47;;;;;;;;;7.33;6.00;;;;;21.67;57.64;100739.47;6182306;22;45320;-78
2023/09/05 04:20:13;;;;;;;;;8.33;7.00;;;;;21.67;57.59;100731.34;6183197;22;45354;-79
2023/09/05 04:22:39;;;;;;;;;12.00;10.67;;;;;21.61;57.45;100733.81;6183418;22;45427;-78
2023/09/05 04:25:06;;;;;;;;;6.00;6.00;;;;;21.67;57.57;100750.31;6182365;22;46055;-78
2023/09/05 04:27:32;;;;;;;;;6.67;6.67;;;;;21.48;57.40;100731.47;6183068;23;45187;-78
2023/09/05 04:29:57;;;;;;;;;7.67;7.33;;;;;21.58;57.44;100744.94;6182634;23;45268;-78
2023/09/05 04:32:30;;;;;;;;;10.00;8.00;;;;;21.64;57.32;100764.16;6183064;22;45126;-79
2023/09/05 04:35:00;;;;;;;;;8.33;8.33;;;;;21.61;57.64;100772.53;6181765;23;46695;-79
2023/09/05 04:37:25;;;;;;;;;9.00;9.00;;;;;21.56;57.96;100766.75;6182461;22;45235;-80
2023/09/05 04:39:52;;;;;;;;;7.33;6.33;;;;;21.45;57.66;100756.13;6183277;22;45330;-80
2023/09/05 04:42:17;;;;;;;;;11.00;10.67;;;;;21.56;57.99;100769.47;6182431;22;45275;-79
2023/09/05 04:44:42;;;;;;;;;10.67;9.00;;;;;21.59;57.82;100777.28;6182346;23;45951;-80
2023/09/05 04:47:25;;;;;;;;;9.33;9.33;;;;;21.47;57.69;100763.09;6182754;22;45265;-79
2023/09/05 04:49:56;;;;;;;;;10.00;8.00;;;;;21.44;57.53;100765.25;6183451;22;45338;-78
2023/09/05 04:52:23;;;;;;;;;9.67;9.00;;;;;21.49;57.85;100774.66;6181498;23;45368;-79
2023/09/05 04:54:49;;;;;;;;;10.33;8.67;;;;;21.58;57.86;100799.06;6182546;23;45442;-81
2023/09/05 04:57:16;;;;;;;;;8.67;8.67;;;;;21.57;57.96;100803.63;6182362;22;45410;-80
2023/09/05 04:59:47;;;;;;;;;11.33;9.00;;;;;21.49;58.13;100790.88;6181907;23;45252;-80
2023/09/05 05:02:13;;;;;;;;;9.33;8.00;;;;;21.47;58.22;100792.88;6181286;23;45419;-81
2023/09/05 05:04:40;;;;;;;;;8.00;7.33;;;;;21.58;57.56;100813.47;6182305;23;45375;-81
2023/09/05 05:07:06;;;;;;;;;7.67;7.00;;;;;21.60;57.77;100819.56;6182027;22;45383;-81
2023/09/05 05:09:31;;;;;;;;;8.00;7.00;;;;;21.60;57.63;100819.56;6182463;23;45343;-80
2023/09/05 05:11:57;;;;;;;;;7.33;7.33;;;;;21.47;57.66;100797.41;6182871;23;45548;-79
2023/09/05 05:14:22;;;;;;;;;8.00;7.00;;;;;21.53;57.52;100802.25;6182882;23;46906;-82
2023/09/05 05:16:49;;;;;;;;;7.67;7.67;;;;;21.54;57.69;100813.91;6182803;23;45450;-80
2023/09/05 05:19:14;;;;;;;;;11.33;7.33;;;;;21.65;57.84;100824.53;6182533;22;45346;-80
2023/09/05 05:21:39;;;;;;;;;11.33;9.67;;;;;21.65;57.20;100824.53;6182562;23;45502;-81
2023/09/05 05:24:08;;;;;;;;;7.00;7.00;;;;;21.55;57.77;100796.69;6182478;22;45308;-79
2023/09/05 05:26:33;;;;;;;;;6.00;6.00;;;;;21.71;57.71;100822.06;6182568;23;45356;-81
2023/09/05 05:28:59;;;;;;;;;8.67;7.33;;;;;21.74;57.55;100829.88;6183265;23;45363;-83
2023/09/05 05:31:25;;;;;;;;;6.00;6.00;;;;;21.74;57.44;100826.31;6184257;22;53709;-82
2023/09/05 05:33:51;;;;;;;;;7.67;7.67;;;;;21.78;57.29;100830.44;6184638;22;45311;-83
2023/09/05 05:36:16;;;;;;;;;7.00;6.00;;;;;21.70;57.13;100812.25;6183298;23;45217;-81
2023/09/05 05:38:42;;;;;;;;;8.33;8.33;;;;;21.83;56.96;100827.25;6183415;23;45422;-81
2023/09/05 05:41:09;;;;;;;;;9.67;9.33;;;;;21.84;57.24;100824.41;6182503;23;45407;-80
2023/09/05 05:43:35;;;;;;;;;7.33;7.33;;;;;21.90;57.08;100829.22;6182373;22;46050;-82
2023/09/05 05:46:00;;;;;;;;;7.67;7.67;;;;;21.86;57.21;100808.00;6182081;22;45233;-82
2023/09/05 05:48:25;;;;;;;;;8.67;8.67;;;;;22.00;57.26;100826.41;6182190;23;45303;-80
2023/09/05 05:50:51;;;;;;;;;7.00;7.00;;;;;21.97;57.06;100819.47;6182259;23;45383;-80
2023/09/05 05:53:17;;;;;;;;;8.00;8.00;;;;;22.02;57.05;100808.19;6182710;22;46115;-81
2023/09/05 05:55:43;;;;;;;;;9.33;8.00;;;;;22.03;56.44;100797.19;6181466;23;45287;-79
2023/09/05 05:58:08;;;;;;;;;9.00;9.00;;;;;22.16;56.46;100821.22;6179471;23;45270;-82
2023/09/05 06:00:33;;;;;;;;;9.33;9.33;;;;;22.20;56.45;100819.03;6183483;23;45513;-81
2023/09/05 06:02:59;;;;;;;;;10.33;10.00;;;;;22.26;56.47;100826.53;6184776;23;52082;-80
2023/09/05 06:05:24;;;;;;;;;8.33;7.00;;;;;22.21;56.21;100809.91;6183435;23;45267;-83
2023/09/05 06:07:49;;;;;;;;;9.00;7.67;;;;;22.35;56.26;100822.91;6181172;23;45349;-81
2023/09/05 06:10:15;;;;;;;;;6.33;6.33;;;;;22.42;56.33;100826.69;6182702;23;45473;-81
2023/09/05 06:12:41;;;;;;;;;11.67;10.00;;;;;22.51;55.91;100827.59;6182270;23;46610;-79
2023/09/05 06:15:07;;;;;;;;;13.67;12.33;;;;;22.55;55.70;100829.84;6181256;22;45375;-78
2023/09/05 06:17:32;;;;;;;;;14.00;14.00;;;;;22.45;55.43;100790.28;6180302;22;45339;-83
2023/09/05 06:19:57;;;;;;;;;7.67;6.67;;;;;22.54;55.31;100811.03;6182852;22;45404;-78
2023/09/05 06:22:23;;;;;;;;;10.33;7.00;;;;;22.71;55.19;100826.41;6181640;23;46059;-77
2023/09/05 06:24:48;;;;;;;;;8.00;6.67;;;;;22.78;54.94;100826.59;6181785;22;45308;-78
2023/09/05 06:27:14;;;;;;;;;8.00;6.67;;;;;22.89;54.80;100843.50;6182017;23;45122;-80
2023/09/05 06:29:39;;;;;;;;;5.33;5.33;;;;;22.95;54.59;100839.31;6181877;22;45485;-81
2023/09/05 06:32:04;;;;;;;;;7.00;7.00;;;;;23.00;54.26;100831.53;6181526;22;46433;-78
2023/09/05 06:34:31;;;;;;;;;7.33;7.33;;;;;23.38;53.52;100843.78;6182884;23;45647;-79
2023/09/05 06:36:57;;;;;;;;;6.00;6.00;;;;;23.50;53.60;100849.75;6182470;22;45181;-80
2023/09/05 06:39:22;;;;;;;;;9.00;6.00;;;;;23.39;53.08;100858.19;6182271;23;45264;-79
2023/09/05 06:41:47;;;;;;;;;9.00;7.25;;;;;23.30;53.10;100854.56;6180740;23;46425;-77
2023/09/05 06:44:15;;;;;;;;;7.67;6.00;;;;;23.23;53.49;100838.09;6181695;23;45154;-79
2023/09/05 06:46:40;;;;;;;;;8.33;7.00;;;;;23.20;53.83;100837.59;6181717;23;45327;-78
2023/09/05 06:49:05;;;;;;;;;8.00;7.00;;;;;23.25;53.32;100840.66;6181870;23;45491;-79
2023/09/05 06:51:31;;;;;;;;;7.50;7.25;;;;;23.30;53.34;100843.72;6181436;23;56848;-78
2023/09/05 06:53:58;;;;;;;;;12.67;7.33;;;;;23.39;53.40;100842.75;6180092;23;45281;-77
2023/09/05 06:56:23;;;;;;;;;12.33;7.33;;;;;23.29;53.10;100820.31;6181892;23;45248;-79
2023/09/05 06:58:49;;;;;;;;;8.00;8.00;;;;;23.40;53.04;100832.75;6182721;23;45490;-80
2023/09/05 07:01:14;;;;;;;;;3.67;3.67;;;;;23.41;53.17;100840.72;6182097;23;62291;-79
2023/09/05 07:03:39;;;;;;;;;10.67;6.00;;;;;23.34;53.35;100822.56;6183170;23;62999;-80
2023/09/05 07:06:05;;;;;;;;;8.33;8.33;;;;;23.33;53.60;100838.00;6184219;23;45627;-84
2023/09/05 07:08:31;;;;;;;;;9.50;7.50;;;;;23.52;53.02;100848.56;6184215;23;45115;-80
2023/09/05 07:10:57;;;;;;;;;8.00;7.00;;;;;23.41;52.79;100793.72;6183054;23;46089;-80
2023/09/05 07:13:22;;;;;;;;;6.33;6.00;;;;;23.97;51.93;100839.25;6185968;23;45674;-83
2023/09/05 07:15:47;;;;;;;;;10.00;8.75;;;;;23.86;51.87;100826.00;6186156;23;55340;-82
2023/09/05 07:18:13;;;;;;;;;7.67;7.67;;;;;23.85;52.58;100845.16;6185337;23;45275;-84
2023/09/05 07:20:39;;;;;;;;;10.33;9.00;;;;;23.90;52.36;100840.94;6211364;22;47050;-84
2023/09/05 07:23:04;;;;;;;;;10.50;7.50;;;;;23.89;52.42;100843.81;6189148;22;45336;-79
2023/09/05 07:25:29;;;;;;;;;7.25;5.50;;;;;23.81;52.52;100831.06;6188431;22;45368;-83
2023/09/05 07:27:55;;;;;;;;;9.33;7.33;;;;;23.92;52.44;100860.63;6187262;23;45371;-81
2023/09/05 07:30:20;;;;;;;;;7.50;7.50;;;;;23.93;52.54;100858.75;6185379;23;45403;-82
2023/09/05 07:32:46;;;;;;;;;9.75;8.50;;;;;23.76;52.47;100839.69;6185424;23;45347;-83
2023/09/05 07:35:11;;;;;;;;;6.75;6.75;;;;;23.93;52.29;100858.75;6186586;23;45391;-84
2023/09/05 07:37:38;;;;;;;;;10.00;10.00;;;;;23.98;52.04;100859.97;6183297;23;45359;-79
2023/09/05 07:40:05;;;;;;;;;6.50;6.50;;;;;24.00;52.28;100851.66;6182577;22;46419;-80
2023/09/05 07:42:31;;;;;;;;;7.25;6.75;;;;;24.03;52.15;100844.00;6183881;22;45240;-81
2023/09/05 07:44:56;;;;;;;;;8.33;8.33;;;;;24.10;52.20;100846.94;6184828;23;45218;-83
2023/09/05 07:47:21;;;;;;;;;7.25;7.25;;;;;24.05;52.42;100849.28;6183786;23;45491;-81
2023/09/05 07:49:47;;;;;;;;;9.00;9.00;;;;;23.97;52.53;100841.97;6183962;22;45302;-85
2023/09/05 07:52:12;;;;;;;;;9.00;8.00;;;;;24.03;52.51;100846.72;6183719;22;45235;-80
2023/09/05 07:54:37;;;;;;;;;7.67;7.67;;;;;24.04;52.65;100847.56;6182517;23;45186;-80
2023/09/05 07:57:03;;;;;;;;;7.50;7.50;;;;;24.17;52.62;100852.53;6183655;22;45158;-82
2023/09/05 07:59:29;;;;;;;;;10.33;9.00;;;;;24.26;52.18;100854.25;6182797;22;46213;-80
2023/09/05 08:01:57;;;;;;;;;6.25;6.00;;;;;24.33;52.06;100855.28;6183064;22;45313;-78
2023/09/05 08:04:23;;;;;;;;;12.50;10.25;;;;;24.34;51.66;100854.25;6182925;22;45355;-80
2023/09/05 08:06:48;;;;;;;;;8.50;6.75;;;;;24.41;51.86;100847.16;6182724;22;45322;-81
2023/09/05 08:09:14;;;;;;;;;9.00;9.00;;;;;24.56;51.87;100859.03;6182495;23;45367;-79
2023/09/05 08:11:39;;;;;;;;;11.50;9.00;;;;;24.63;51.34;100860.06;6182590;22;45300;-79
2023/09/05 08:14:05;;;;;;;;;12.75;10.50;;;;;24.45;51.13;100824.03;6184060;22;45169;-82
2023/09/05 08:16:30;;;;;;;;;9.75;7.75;;;;;24.63;51.28;100821.16;6183084;23;45513;-82
2023/09/05 08:18:56;;;;;;;;;9.75;9.75;;;;;24.95;50.73;100859.16;6182916;23;46257;-82
2023/09/05 08:21:21;;;;;;;;;9.25;8.75;;;;;24.89;50.49;100861.75;6181050;23;45224;-82
2023/09/05 08:23:49;;;;;;;;;10.25;6.50;;;;;24.83;50.74;100821.59;6183586;22;45149;-82
2023/09/05 08:26:16;;;;;;;;;8.00;8.00;;;;;25.04;50.32;100856.47;6183154;22;45244;-79
2023/09/05 08:28:43;;;;;;;;;8.00;8.00;;;;;25.08;50.08;100866.81;6182462;23;47128;-80
2023/09/05 08:31:09;;;;;;;;;7.50;7.50;;;;;25.10;50.31;100867.50;6182498;23;45353;-78
2023/09/05 08:33:35;;;;;;;;;10.00;8.75;;;;;25.12;50.05;100868.16;6183286;22;45336;-78
2023/09/05 08:36:00;;;;;;;;;9.25;9.25;;;;;25.22;50.26;100862.53;6182718;23;45201;-79
2023/09/05 08:38:25;;;;;;;;;7.75;7.75;;;;;25.30;49.82;100865.25;6182353;23;46061;-82
2023/09/05 08:40:51;;;;;;;;;10.50;9.00;;;;;25.34;50.19;100854.84;6182166;22;45355;-79
2023/09/05 08:43:17;;;;;;;;;12.00;8.25;;;;;25.25;50.04;100851.28;6182983;23;45250;-79
2023/09/05 08:45:45;;;;;;;;;10.75;10.75;;;;;25.41;50.05;100866.75;6182827;22;45439;-79
2023/09/05 08:48:11;;;;;;;;;10.50;10.50;;;;;25.46;49.90;100861.63;6182186;22;46086;-78
2023/09/05 08:50:37;;;;;;;;;7.00;7.00;;;;;25.55;49.87;100863.28;6183064;22;45311;-79
2023/09/05 08:53:11;;;;;;;;;9.25;9.25;;;;;25.61;49.78;100867.16;6183092;23;45438;-80
2023/09/05 08:55:40;;;;;;;;;10.00;8.50;;;;;25.59;49.32;100856.44;6183355;22;45343;-80
2023/09/05 08:58:10;;;;;;;;;10.50;9.50;;;;;25.72;49.40;100855.91;6182417;22;46275;-79
2023/09/05 09:00:36;;;;;;;;;9.00;7.00;;;;;25.68;48.88;100855.41;6180608;23;45527;-78
2023/09/05 09:03:03;;;;;;;;;9.75;9.75;;;;;25.81;48.89;100873.94;6182537;22;45301;-81
2023/09/05 09:05:28;;;;;;;;;8.25;7.00;;;;;25.97;48.96;100882.00;6182455;22;45565;-79
2023/09/05 09:07:54;;;;;;;;;10.50;8.25;;;;;25.97;48.63;100865.66;6180812;23;47888;-80
2023/09/05 09:10:21;;;;;;;;;10.50;10.50;;;;;26.13;48.28;100868.28;6182847;23;45281;-78
2023/09/05 09:12:51;;;;;;;;;12.25;10.50;;;;;26.13;48.20;100864.69;6182857;23;45303;-80
2023/09/05 09:15:17;;;;;;;;;9.50;9.00;;;;;26.21;48.17;100875.56;6183098;22;45363;-82
2023/09/05 09:17:47;;;;;;;;;11.00;11.00;;;;;26.36;48.05;100865.59;6182438;23;45337;-80
2023/09/05 09:20:13;;;;;;;;;10.00;10.00;;;;;26.39;47.88;100876.13;6182654;22;45193;-79
2023/09/05 09:22:39;;;;;;;;;7.25;7.25;;;;;26.51;47.92;100862.06;6183371;22;45180;-78
2023/09/05 09:25:20;;;;;;;;;9.75;8.50;;;;;26.58;47.97;100868.50;6184920;23;45501;-80
2023/09/05 09:27:50;;;;;;;;;10.00;10.00;;;;;26.53;47.76;100860.00;6184170;22;45280;-82
2023/09/05 09:30:15;;;;;;;;;9.00;7.50;;;;;26.58;47.43;100860.31;6187330;22;45289;-80
2023/09/05 09:32:41;;;;;;;;;8.50;7.25;;;;;26.63;47.36;100876.97;6185399;23;45322;-81
2023/09/05 09:35:10;;;;;;;;;10.75;9.75;;;;;26.60;47.30;100861.81;6185511;23;45329;-79
2023/09/05 09:37:35;;;;;;;;;10.25;9.50;;;;;26.69;47.80;100870.75;6185178;22;45293;-80
2023/09/05 09:40:02;;;;;;;;;8.75;8.00;;;;;26.84;47.12;100877.13;6182448;23;60202;-79
2023/09/05 09:42:28;;;;;;;;;9.00;9.00;;;;;26.92;47.12;100870.72;6182480;23;45216;-82
2023/09/05 09:44:54;;;;;;;;;9.75;9.50;;;;;26.97;47.03;100871.88;6182360;23;45503;-79
2023/09/05 09:47:20;;;;;;;;;12.50;9.00;;;;;26.95;47.24;100876.66;6182088;22;46278;-80
2023/09/05 09:49:51;;;;;;;;;8.00;8.00;;;;;26.96;47.76;100856.53;6182529;22;45276;-81
2023/09/05 09:52:20;;;;;;;;;12.80;11.20;;;;;27.17;46.87;100861.28;6182105;22;45229;-80
2023/09/05 09:54:47;;;;;;;;;10.75;10.50;;;;;27.26;46.85;100854.72;6182198;22;45241;-77
2023/09/05 09:57:24;;;;;;;;;8.75;8.75;;;;;27.37;46.21;100853.38;6181690;22;46075;-79
2023/09/05 09:59:58;;;;;;;;;14.75;11.25;;;;;27.30;46.65;100838.78;6182187;22;45230;-78
2023/09/05 10:02:25;;;;;;;;;10.25;9.75;;;;;27.44;46.43;100854.31;6182297;22;45209;-79
2023/09/05 10:04:51;;;;;;;;;8.75;8.75;;;;;27.35;46.27;100824.59;6182141;22;45158;-79
2023/09/05 10:07:18;;;;;;;;;10.00;10.00;;;;;27.63;45.88;100853.75;6181581;22;45295;-79
2023/09/05 10:09:45;;;;;;;;;10.20;9.20;;;;;27.69;45.95;100848.56;6181551;23;45284;-79
2023/09/05 10:12:11;;;;;;;;;11.00;10.00;;;;;27.75;46.04;100854.13;6181832;22;45358;-78
2023/09/05 10:14:38;;;;;;;;;8.25;8.25;;;;;27.84;45.14;100846.66;6182373;23;45334;-79
2023/09/05 10:17:04;;;;;;;;;8.50;8.50;;;;;27.60;45.36;100826.78;6181634;23;45367;-79
2023/09/05 10:19:31;;;;;;;;;9.75;9.75;;;;;27.73;45.60;100836.22;6182058;22;45213;-82
2023/09/05 10:22:00;;;;;;;;;11.40;10.20;;;;;27.76;45.26;100820.28;6181699;23;45240;-80
2023/09/05 10:24:29;;;;;;;;;10.25;10.25;;;;;28.10;45.02;100851.56;6181585;23;45546;-77
2023/09/05 10:26:55;;;;;;;;;9.40;9.40;;;;;28.13;44.63;100827.44;6181259;22;46261;-76
2023/09/05 10:29:43;;;;;;;;;10.00;10.00;;;;;28.36;44.16;100848.28;6179589;23;45307;-78
2023/09/05 10:32:13;;;;;;;;;10.00;10.00;;;;;28.46;44.08;100837.88;6181996;23;45232;-79
2023/09/05 10:34:47;;;;;;;;;14.50;10.50;;;;;28.64;44.13;100846.44;6183312;22;45411;-82
2023/09/05 10:37:26;;;;;;;;;13.50;13.50;;;;;28.74;43.65;100836.00;6183163;23;45328;-79
2023/09/05 10:39:56;;;;;;;;;10.20;10.20;;;;;28.97;43.47;100840.41;6183382;22;45199;-78
2023/09/05 10:42:32;;;;;;;;;13.40;12.00;;;;;28.96;43.14;100808.59;6183466;22;45260;-79
2023/09/05 10:45:24;;;;;;;;;11.60;10.80;;;;;29.36;42.77;100832.44;6181599;23;45364;-80
2023/09/05 10:47:50;;;;;;;;;13.40;10.40;;;;;29.55;41.77;100835.50;6183896;23;46117;-82
2023/09/05 10:50:19;;;;;;;;;10.60;10.60;;;;;29.69;41.10;100833.66;6184376;22;45401;-80
2023/09/05 10:53:11;;;;;;;;;12.60;11.00;;;;;29.89;41.02;100829.94;6183198;22;45139;-81
2023/09/05 10:55:44;;;;;;;;;14.00;10.00;;;;;30.16;40.78;100824.53;6174715;23;45503;-81
2023/09/05 10:58:37;;;;;;;;;11.60;10.20;;;;;30.54;40.38;100822.88;6185400;23;47799;-82
2023/09/05 11:01:44;;;;;;;;;9.80;9.00;;;;;30.74;39.85;100830.31;6188527;22;45182;-81
2023/09/05 11:04:17;;;;;;;;;6.80;6.80;;;;;30.98;38.39;100828.78;6185558;23;45287;-85
2023/09/05 11:06:59;;;;;;;;;11.60;8.40;;;;;31.10;38.01;100827.91;6183145;23;45372;-85
2023/09/05 11:09:25;;;;;;;;;8.80;7.60;;;;;31.42;38.17;100830.84;6185373;22;46063;-81
2023/09/05 11:11:51;;;;;;;;;8.75;8.75;;;;;31.74;37.16;100830.94;6185739;23;54599;-82
2023/09/05 11:14:39;;;;;;;;;13.00;11.40;;;;;31.95;36.67;100825.13;6185701;22;45320;-82
2023/09/05 11:17:04;;;;;;;;;8.00;8.00;;;;;32.33;36.27;100849.03;6184579;23;45195;-82
2023/09/05 11:19:37;;;;;;;;;10.00;10.00;;;;;32.57;36.13;100839.97;6182730;23;46941;-82
2023/09/05 11:22:15;;;;;;;;;9.00;7.40;;;;;32.88;35.80;100839.06;6181744;23;45327;-81